sensor_id;sensor_type;location;lat;lon;timestamp;pressure;altitude;pressure_sealevel;temperature;humidity
57056;BME280;42945;51.718;5.324;2023-02-02T00:00:08;101937.53;;;6.14;100.00
57056;BME280;42945;51.718;5.324;2023-02-02T00:02:34;101914.81;;;6.10;100.00
57056;BME280;42945;51.718;5.324;2023-02-02T00:05:01;101897.94;;;6.19;100.00
57056;BME280;42945;51.718;5.324;2023-02-02T00:07:26;101955.91;;;6.19;100.00
57056;BME280;42945;51.718;5.324;2023-02-02T00:09:51;101911.59;;;5.97;100.00
57056;BME280;42945;51.718;5.324;2023-02-02T00:12:17;101935.84;;;6.11;100.00
57056;BME280;42945;51.718;5.324;2023-02-02T00:14:42;101920.03;;;6.11;100.00
57056;BME280;42945;51.718;5.324;2023-02-02T00:17:09;101841.50;;;5.48;100.00
57056;BME280;42945;51.718;5.324;2023-02-02T00:19:34;101912.16;;;6.10;100.00
57056;BME280;42945;51.718;5.324;2023-02-02T00:22:00;101832.81;;;5.43;100.00
57056;BME280;42945;51.718;5.324;2023-02-02T00:24:25;101817.75;;;5.51;100.00
57056;BME280;42945;51.718;5.324;2023-02-02T00:26:53;101947.88;;;6.23;100.00
57056;BME280;42945;51.718;5.324;2023-02-02T00:29:24;101946.31;;;6.15;100.00
57056;BME280;42945;51.718;5.324;2023-02-02T00:31:50;101906.72;;;6.18;100.00
57056;BME280;42945;51.718;5.324;2023-02-02T00:34:16;101955.16;;;6.10;100.00
57056;BME280;42945;51.718;5.324;2023-02-02T00:36:42;101965.38;;;6.26;100.00
57056;BME280;42945;51.718;5.324;2023-02-02T00:39:09;101947.19;;;6.15;100.00
57056;BME280;42945;51.718;5.324;2023-02-02T00:41:35;101964.69;;;6.18;100.00
57056;BME280;42945;51.718;5.324;2023-02-02T00:44:00;101944.97;;;6.36;100.00
57056;BME280;42945;51.718;5.324;2023-02-02T00:46:44;101923.56;;;6.10;100.00
57056;BME280;42945;51.718;5.324;2023-02-02T00:49:09;101941.91;;;6.17;100.00
57056;BME280;42945;51.718;5.324;2023-02-02T00:51:35;101937.41;;;6.20;100.00
57056;BME280;42945;51.718;5.324;2023-02-02T00:54:01;101931.34;;;6.17;100.00
57056;BME280;42945;51.718;5.324;2023-02-02T00:56:27;101966.28;;;6.25;100.00
57056;BME280;42945;51.718;5.324;2023-02-02T00:58:52;101982.28;;;6.16;100.00
57056;BME280;42945;51.718;5.324;2023-02-02T01:01:18;101932.28;;;6.14;100.00
57056;BME280;42945;51.718;5.324;2023-02-02T01:03:50;101829.13;;;5.51;100.00
57056;BME280;42945;51.718;5.324;2023-02-02T01:06:16;101980.44;;;6.21;100.00
57056;BME280;42945;51.718;5.324;2023-02-02T01:08:42;101940.13;;;6.17;100.00
57056;BME280;42945;51.718;5.324;2023-02-02T01:11:07;101879.22;;;5.89;100.00
57056;BME280;42945;51.718;5.324;2023-02-02T01:13:33;101925.28;;;6.13;100.00
57056;BME280;42945;51.718;5.324;2023-02-02T01:16:00;101815.94;;;5.55;100.00
57056;BME280;42945;51.718;5.324;2023-02-02T01:18:26;101869.94;;;6.15;100.00
57056;BME280;42945;51.718;5.324;2023-02-02T01:21:00;101809.13;;;5.43;100.00
57056;BME280;42945;51.718;5.324;2023-02-02T01:23:26;101943.72;;;6.13;100.00
57056;BME280;42945;51.718;5.324;2023-02-02T01:25:56;101956.63;;;6.25;100.00
57056;BME280;42945;51.718;5.324;2023-02-02T01:28:22;101939.13;;;6.23;100.00
57056;BME280;42945;51.718;5.324;2023-02-02T01:30:48;101941.75;;;6.23;100.00
57056;BME280;42945;51.718;5.324;2023-02-02T01:33:15;101926.16;;;6.14;100.00
57056;BME280;42945;51.718;5.324;2023-02-02T01:35:48;101939.38;;;6.10;100.00
57056;BME280;42945;51.718;5.324;2023-02-02T01:38:13;101923.47;;;6.15;100.00
57056;BME280;42945;51.718;5.324;2023-02-02T01:40:47;101968.28;;;6.14;100.00
57056;BME280;42945;51.718;5.324;2023-02-02T01:46:12;101956.13;;;6.06;100.00
57056;BME280;42945;51.718;5.324;2023-02-02T01:48:39;101934.09;;;6.10;100.00
57056;BME280;42945;51.718;5.324;2023-02-02T01:51:11;101888.75;;;5.98;100.00
57056;BME280;42945;51.718;5.324;2023-02-02T01:53:38;101830.53;;;5.26;100.00
57056;BME280;42945;51.718;5.324;2023-02-02T01:56:06;101981.50;;;6.10;100.00
57056;BME280;42945;51.718;5.324;2023-02-02T01:58:34;101815.56;;;5.29;100.00
57056;BME280;42945;51.718;5.324;2023-02-02T02:01:01;101928.22;;;5.99;100.00
57056;BME280;42945;51.718;5.324;2023-02-02T02:03:28;101855.84;;;5.31;100.00
57056;BME280;42945;51.718;5.324;2023-02-02T02:05:59;101942.38;;;5.90;100.00
57056;BME280;42945;51.718;5.324;2023-02-02T02:08:32;101836.66;;;5.26;100.00
57056;BME280;42945;51.718;5.324;2023-02-02T02:10:58;101936.88;;;6.04;100.00
57056;BME280;42945;51.718;5.324;2023-02-02T02:13:25;101849.56;;;5.39;100.00
57056;BME280;42945;51.718;5.324;2023-02-02T02:22:01;101923.25;;;5.84;100.00
57056;BME280;42945;51.718;5.324;2023-02-02T02:25:20;101929.41;;;5.81;100.00
57056;BME280;42945;51.718;5.324;2023-02-02T02:39:17;101946.97;;;5.81;100.00
57056;BME280;42945;51.718;5.324;2023-02-02T02:41:49;101914.13;;;5.57;100.00
57056;BME280;42945;51.718;5.324;2023-02-02T02:44:17;102018.66;;;6.40;100.00
57056;BME280;42945;51.718;5.324;2023-02-02T02:46:44;101976.56;;;5.95;100.00
57056;BME280;42945;51.718;5.324;2023-02-02T02:49:11;101966.06;;;5.92;100.00
57056;BME280;42945;51.718;5.324;2023-02-02T02:51:52;101865.84;;;5.12;100.00
57056;BME280;42945;51.718;5.324;2023-02-02T02:54:25;101937.28;;;5.83;100.00
57056;BME280;42945;51.718;5.324;2023-02-02T02:57:07;101827.97;;;5.21;100.00
57056;BME280;42945;51.718;5.324;2023-02-02T03:02:46;101927.72;;;5.79;100.00
57056;BME280;42945;51.718;5.324;2023-02-02T03:07:58;101933.75;;;5.84;100.00
57056;BME280;42945;51.718;5.324;2023-02-02T03:10:27;101979.28;;;5.89;100.00
57056;BME280;42945;51.718;5.324;2023-02-02T03:12:54;102003.78;;;5.96;100.00
57056;BME280;42945;51.718;5.324;2023-02-02T03:15:20;101971.50;;;5.83;100.00
57056;BME280;42945;51.718;5.324;2023-02-02T03:17:46;101932.09;;;5.80;100.00
57056;BME280;42945;51.718;5.324;2023-02-02T03:20:13;101924.94;;;5.86;100.00
57056;BME280;42945;51.718;5.324;2023-02-02T03:22:39;101957.47;;;5.84;100.00
57056;BME280;42945;51.718;5.324;2023-02-02T03:25:05;101958.28;;;5.86;100.00
57056;BME280;42945;51.718;5.324;2023-02-02T03:27:31;101955.78;;;5.80;100.00
57056;BME280;42945;51.718;5.324;2023-02-02T03:29:57;102000.72;;;5.70;100.00
57056;BME280;42945;51.718;5.324;2023-02-02T03:32:22;101828.78;;;5.25;100.00
57056;BME280;42945;51.718;5.324;2023-02-02T03:34:47;101951.22;;;5.88;100.00
57056;BME280;42945;51.718;5.324;2023-02-02T03:37:13;101911.41;;;5.61;100.00
57056;BME280;42945;51.718;5.324;2023-02-02T03:39:38;101955.97;;;5.70;100.00
57056;BME280;42945;51.718;5.324;2023-02-02T03:42:04;102068.59;;;6.46;100.00
57056;BME280;42945;51.718;5.324;2023-02-02T03:44:29;101954.75;;;5.87;100.00
57056;BME280;42945;51.718;5.324;2023-02-02T03:46:54;101951.38;;;5.80;100.00
57056;BME280;42945;51.718;5.324;2023-02-02T03:49:20;101938.06;;;5.88;100.00
57056;BME280;42945;51.718;5.324;2023-02-02T03:51:45;101940.75;;;5.85;100.00
57056;BME280;42945;51.718;5.324;2023-02-02T03:54:11;101986.06;;;6.02;100.00
57056;BME280;42945;51.718;5.324;2023-02-02T03:56:36;101940.56;;;5.97;100.00
57056;BME280;42945;51.718;5.324;2023-02-02T03:59:02;101851.50;;;5.29;100.00
57056;BME280;42945;51.718;5.324;2023-02-02T04:01:29;101979.22;;;5.92;100.00
57056;BME280;42945;51.718;5.324;2023-02-02T04:03:56;101978.28;;;5.98;100.00
57056;BME280;42945;51.718;5.324;2023-02-02T04:06:22;101950.84;;;6.08;100.00
57056;BME280;42945;51.718;5.324;2023-02-02T04:08:48;101992.13;;;6.07;100.00
57056;BME280;42945;51.718;5.324;2023-02-02T04:11:15;101964.09;;;6.05;100.00
57056;BME280;42945;51.718;5.324;2023-02-02T04:13:40;101951.97;;;5.95;100.00
57056;BME280;42945;51.718;5.324;2023-02-02T04:16:08;101977.47;;;5.91;100.00
57056;BME280;42945;51.718;5.324;2023-02-02T04:18:34;101883.03;;;5.30;100.00
57056;BME280;42945;51.718;5.324;2023-02-02T04:21:02;101979.00;;;6.04;100.00
57056;BME280;42945;51.718;5.324;2023-02-02T04:23:28;101915.97;;;5.97;100.00
57056;BME280;42945;51.718;5.324;2023-02-02T04:25:54;101865.53;;;5.29;100.00
57056;BME280;42945;51.718;5.324;2023-02-02T04:28:20;101965.13;;;5.96;100.00
57056;BME280;42945;51.718;5.324;2023-02-02T04:30:48;101979.97;;;6.00;100.00
57056;BME280;42945;51.718;5.324;2023-02-02T04:33:13;101974.81;;;5.96;100.00
57056;BME280;42945;51.718;5.324;2023-02-02T04:35:39;102013.09;;;6.10;100.00
57056;BME280;42945;51.718;5.324;2023-02-02T04:38:04;101931.78;;;5.95;100.00
57056;BME280;42945;51.718;5.324;2023-02-02T04:40:29;101902.09;;;5.87;100.00
57056;BME280;42945;51.718;5.324;2023-02-02T04:42:56;101947.59;;;5.94;100.00
57056;BME280;42945;51.718;5.324;2023-02-02T04:45:22;101836.47;;;5.36;100.00
57056;BME280;42945;51.718;5.324;2023-02-02T04:47:47;101824.41;;;5.25;100.00
57056;BME280;42945;51.718;5.324;2023-02-02T04:50:12;101967.00;;;5.89;100.00
57056;BME280;42945;51.718;5.324;2023-02-02T04:52:38;101961.63;;;5.94;100.00
57056;BME280;42945;51.718;5.324;2023-02-02T04:55:03;101953.72;;;5.97;100.00
57056;BME280;42945;51.718;5.324;2023-02-02T04:57:29;101983.50;;;5.99;100.00
57056;BME280;42945;51.718;5.324;2023-02-02T04:59:54;101980.94;;;5.93;100.00
57056;BME280;42945;51.718;5.324;2023-02-02T05:02:19;101975.69;;;5.93;100.00
57056;BME280;42945;51.718;5.324;2023-02-02T05:04:45;101755.47;;;4.63;100.00
57056;BME280;42945;51.718;5.324;2023-02-02T05:07:10;102001.03;;;6.00;100.00
57056;BME280;42945;51.718;5.324;2023-02-02T05:09:35;101770.22;;;4.73;100.00
57056;BME280;42945;51.718;5.324;2023-02-02T05:12:02;102015.94;;;6.01;100.00
57056;BME280;42945;51.718;5.324;2023-02-02T05:14:27;101855.72;;;5.38;100.00
57056;BME280;42945;51.718;5.324;2023-02-02T05:16:53;101972.69;;;6.13;100.00
57056;BME280;42945;51.718;5.324;2023-02-02T05:19:18;101945.69;;;6.03;100.00
57056;BME280;42945;51.718;5.324;2023-02-02T05:21:44;101957.22;;;5.96;100.00
57056;BME280;42945;51.718;5.324;2023-02-02T05:24:10;101970.19;;;6.07;100.00
57056;BME280;42945;51.718;5.324;2023-02-02T05:26:36;102004.47;;;6.05;100.00
57056;BME280;42945;51.718;5.324;2023-02-02T05:29:04;102046.44;;;6.13;100.00
57056;BME280;42945;51.718;5.324;2023-02-02T05:31:31;101994.59;;;6.15;100.00
57056;BME280;42945;51.718;5.324;2023-02-02T05:33:56;102006.84;;;6.16;100.00
57056;BME280;42945;51.718;5.324;2023-02-02T05:36:22;102006.69;;;6.24;100.00
57056;BME280;42945;51.718;5.324;2023-02-02T05:38:47;102007.13;;;6.04;100.00
57056;BME280;42945;51.718;5.324;2023-02-02T05:41:12;102000.03;;;6.07;100.00
57056;BME280;42945;51.718;5.324;2023-02-02T05:43:38;101998.03;;;6.19;100.00
57056;BME280;42945;51.718;5.324;2023-02-02T05:46:03;102001.56;;;6.18;100.00
57056;BME280;42945;51.718;5.324;2023-02-02T05:48:29;101973.72;;;6.04;100.00
57056;BME280;42945;51.718;5.324;2023-02-02T05:51:00;102024.44;;;6.16;100.00
57056;BME280;42945;51.718;5.324;2023-02-02T05:53:27;101999.94;;;6.10;100.00
57056;BME280;42945;51.718;5.324;2023-02-02T05:55:53;101866.13;;;5.44;100.00
57056;BME280;42945;51.718;5.324;2023-02-02T05:58:18;101886.28;;;5.45;100.00
57056;BME280;42945;51.718;5.324;2023-02-02T06:00:43;102063.06;;;6.17;100.00
57056;BME280;42945;51.718;5.324;2023-02-02T06:03:09;101800.78;;;4.77;100.00
57056;BME280;42945;51.718;5.324;2023-02-02T06:05:35;101977.44;;;5.94;100.00
57056;BME280;42945;51.718;5.324;2023-02-02T06:08:00;101910.53;;;6.04;100.00
57056;BME280;42945;51.718;5.324;2023-02-02T06:10:26;101887.16;;;5.45;100.00
57056;BME280;42945;51.718;5.324;2023-02-02T06:12:51;101990.34;;;6.08;100.00
57056;BME280;42945;51.718;5.324;2023-02-02T06:15:16;101996.47;;;6.08;100.00
57056;BME280;42945;51.718;5.324;2023-02-02T06:17:42;101920.88;;;5.23;100.00
57056;BME280;42945;51.718;5.324;2023-02-02T06:20:08;101905.88;;;5.28;100.00
57056;BME280;42945;51.718;5.324;2023-02-02T06:22:33;102007.25;;;5.96;100.00
57056;BME280;42945;51.718;5.324;2023-02-02T06:24:58;101888.47;;;5.21;100.00
57056;BME280;42945;51.718;5.324;2023-02-02T06:27:24;102050.25;;;5.97;100.00
57056;BME280;42945;51.718;5.324;2023-02-02T06:29:49;101977.31;;;5.55;100.00
57056;BME280;42945;51.718;5.324;2023-02-02T06:32:14;101859.66;;;5.15;100.00
57056;BME280;42945;51.718;5.324;2023-02-02T06:34:41;102042.41;;;5.92;100.00
57056;BME280;42945;51.718;5.324;2023-02-02T06:37:06;102040.75;;;5.88;100.00
57056;BME280;42945;51.718;5.324;2023-02-02T06:39:32;101881.50;;;5.20;100.00
57056;BME280;42945;51.718;5.324;2023-02-02T06:41:57;101907.66;;;5.26;100.00
57056;BME280;42945;51.718;5.324;2023-02-02T06:44:22;102047.56;;;6.00;100.00
57056;BME280;42945;51.718;5.324;2023-02-02T06:46:48;102033.59;;;5.93;100.00
57056;BME280;42945;51.718;5.324;2023-02-02T06:49:14;102063.41;;;5.98;100.00
57056;BME280;42945;51.718;5.324;2023-02-02T06:51:39;102019.56;;;5.97;100.00
57056;BME280;42945;51.718;5.324;2023-02-02T06:54:05;102035.91;;;6.13;100.00
57056;BME280;42945;51.718;5.324;2023-02-02T06:56:30;102038.97;;;5.88;100.00
57056;BME280;42945;51.718;5.324;2023-02-02T06:58:55;102043.19;;;5.99;100.00
57056;BME280;42945;51.718;5.324;2023-02-02T07:01:21;102009.06;;;5.91;100.00
57056;BME280;42945;51.718;5.324;2023-02-02T07:03:49;102022.38;;;5.83;100.00
57056;BME280;42945;51.718;5.324;2023-02-02T07:06:25;102065.06;;;6.02;100.00
57056;BME280;42945;51.718;5.324;2023-02-02T07:08:51;102035.34;;;5.97;100.00
57056;BME280;42945;51.718;5.324;2023-02-02T07:11:17;102034.38;;;6.01;100.00
57056;BME280;42945;51.718;5.324;2023-02-02T07:13:44;102039.84;;;5.89;100.00
57056;BME280;42945;51.718;5.324;2023-02-02T07:16:09;102064.94;;;6.08;100.00
57056;BME280;42945;51.718;5.324;2023-02-02T07:18:37;102042.38;;;5.95;100.00
57056;BME280;42945;51.718;5.324;2023-02-02T07:21:03;102063.41;;;5.97;100.00
57056;BME280;42945;51.718;5.324;2023-02-02T07:23:29;102066.03;;;5.98;100.00
57056;BME280;42945;51.718;5.324;2023-02-02T07:26:03;102041.72;;;5.84;100.00
57056;BME280;42945;51.718;5.324;2023-02-02T07:28:29;102056.72;;;5.79;100.00
57056;BME280;42945;51.718;5.324;2023-02-02T07:30:54;102017.13;;;5.83;100.00
57056;BME280;42945;51.718;5.324;2023-02-02T07:33:19;102052.28;;;5.81;100.00
57056;BME280;42945;51.718;5.324;2023-02-02T07:35:45;102080.34;;;5.82;100.00
57056;BME280;42945;51.718;5.324;2023-02-02T07:38:10;102063.63;;;5.84;100.00
57056;BME280;42945;51.718;5.324;2023-02-02T07:40:35;102083.06;;;5.76;100.00
57056;BME280;42945;51.718;5.324;2023-02-02T07:43:01;101987.81;;;5.04;100.00
57056;BME280;42945;51.718;5.324;2023-02-02T07:45:26;102048.09;;;5.70;100.00
57056;BME280;42945;51.718;5.324;2023-02-02T07:47:58;102088.16;;;5.86;100.00
57056;BME280;42945;51.718;5.324;2023-02-02T07:50:25;102094.44;;;5.78;100.00
57056;BME280;42945;51.718;5.324;2023-02-02T07:52:51;102110.19;;;5.82;100.00
57056;BME280;42945;51.718;5.324;2023-02-02T07:55:16;101956.06;;;5.16;100.00
57056;BME280;42945;51.718;5.324;2023-02-02T07:57:42;102110.16;;;5.84;100.00
57056;BME280;42945;51.718;5.324;2023-02-02T08:00:07;102041.84;;;5.76;100.00
57056;BME280;42945;51.718;5.324;2023-02-02T08:02:33;101961.34;;;5.16;100.00
57056;BME280;42945;51.718;5.324;2023-02-02T08:04:59;102119.72;;;5.88;100.00
57056;BME280;42945;51.718;5.324;2023-02-02T08:07:24;102175.53;;;6.11;100.00
57056;BME280;42945;51.718;5.324;2023-02-02T08:09:50;102081.81;;;6.00;100.00
57056;BME280;42945;51.718;5.324;2023-02-02T08:12:15;102153.88;;;5.96;100.00
57056;BME280;42945;51.718;5.324;2023-02-02T08:14:41;102077.50;;;5.94;100.00
57056;BME280;42945;51.718;5.324;2023-02-02T08:17:06;102101.19;;;5.97;100.00
57056;BME280;42945;51.718;5.324;2023-02-02T08:19:32;101884.06;;;4.72;100.00
57056;BME280;42945;51.718;5.324;2023-02-02T08:21:57;102066.00;;;6.01;100.00
57056;BME280;42945;51.718;5.324;2023-02-02T08:24:22;102091.41;;;6.02;100.00
57056;BME280;42945;51.718;5.324;2023-02-02T08:26:48;102126.19;;;6.21;100.00
57056;BME280;42945;51.718;5.324;2023-02-02T08:29:13;102115.91;;;6.07;100.00
57056;BME280;42945;51.718;5.324;2023-02-02T08:31:42;102122.59;;;6.24;100.00
57056;BME280;42945;51.718;5.324;2023-02-02T08:34:08;101974.69;;;5.55;100.00
57056;BME280;42945;51.718;5.324;2023-02-02T08:36:34;102124.38;;;6.25;100.00
57056;BME280;42945;51.718;5.324;2023-02-02T08:39:05;102138.50;;;6.21;100.00
57056;BME280;42945;51.718;5.324;2023-02-02T08:41:31;102137.47;;;6.28;100.00
57056;BME280;42945;51.718;5.324;2023-02-02T08:43:57;102037.69;;;5.63;100.00
57056;BME280;42945;51.718;5.324;2023-02-02T08:46:23;102111.34;;;6.16;100.00
57056;BME280;42945;51.718;5.324;2023-02-02T08:48:48;102136.84;;;6.14;100.00
57056;BME280;42945;51.718;5.324;2023-02-02T08:51:16;102132.97;;;6.33;100.00
57056;BME280;42945;51.718;5.324;2023-02-02T08:53:44;102125.31;;;6.21;100.00
57056;BME280;42945;51.718;5.324;2023-02-02T08:56:18;102123.44;;;6.27;100.00
57056;BME280;42945;51.718;5.324;2023-02-02T08:58:46;102176.06;;;6.32;100.00
57056;BME280;42945;51.718;5.324;2023-02-02T09:01:14;102136.53;;;6.32;100.00
57056;BME280;42945;51.718;5.324;2023-02-02T09:03:40;102043.78;;;5.66;100.00
57056;BME280;42945;51.718;5.324;2023-02-02T09:06:08;102042.88;;;5.66;100.00
57056;BME280;42945;51.718;5.324;2023-02-02T09:08:34;102168.84;;;6.42;100.00
57056;BME280;42945;51.718;5.324;2023-02-02T09:11:11;102176.78;;;6.40;100.00
57056;BME280;42945;51.718;5.324;2023-02-02T09:13:39;102165.38;;;6.40;100.00
57056;BME280;42945;51.718;5.324;2023-02-02T09:16:06;102161.66;;;6.50;100.00
57056;BME280;42945;51.718;5.324;2023-02-02T09:18:32;102160.72;;;6.53;100.00
57056;BME280;42945;51.718;5.324;2023-02-02T09:21:03;102183.59;;;6.50;100.00
57056;BME280;42945;51.718;5.324;2023-02-02T09:23:29;102148.38;;;6.55;100.00
57056;BME280;42945;51.718;5.324;2023-02-02T09:25:55;102197.44;;;6.62;100.00
57056;BME280;42945;51.718;5.324;2023-02-02T09:28:20;102132.31;;;6.67;100.00
57056;BME280;42945;51.718;5.324;2023-02-02T09:30:45;102124.50;;;6.62;100.00
57056;BME280;42945;51.718;5.324;2023-02-02T09:33:11;102056.22;;;6.06;100.00
57056;BME280;42945;51.718;5.324;2023-02-02T09:35:36;102189.81;;;6.92;100.00
57056;BME280;42945;51.718;5.324;2023-02-02T09:38:01;102176.59;;;6.93;100.00
57056;BME280;42945;51.718;5.324;2023-02-02T09:40:30;102225.56;;;7.06;100.00
57056;BME280;42945;51.718;5.324;2023-02-02T09:43:36;102175.63;;;6.97;100.00
57056;BME280;42945;51.718;5.324;2023-02-02T09:46:09;102202.84;;;6.98;100.00
57056;BME280;42945;51.718;5.324;2023-02-02T09:48:45;102180.69;;;7.08;100.00
57056;BME280;42945;51.718;5.324;2023-02-02T09:51:17;102173.75;;;7.04;100.00
57056;BME280;42945;51.718;5.324;2023-02-02T09:53:52;102187.03;;;6.98;100.00
57056;BME280;42945;51.718;5.324;2023-02-02T09:56:23;102180.34;;;6.81;100.00
57056;BME280;42945;51.718;5.324;2023-02-02T09:58:53;102124.25;;;6.31;100.00
57056;BME280;42945;51.718;5.324;2023-02-02T10:01:29;102102.47;;;6.21;100.00
57056;BME280;42945;51.718;5.324;2023-02-02T10:04:00;102218.78;;;6.95;100.00
57056;BME280;42945;51.718;5.324;2023-02-02T10:06:37;102225.66;;;7.02;100.00
57056;BME280;42945;51.718;5.324;2023-02-02T10:09:29;102187.25;;;6.88;100.00
57056;BME280;42945;51.718;5.324;2023-02-02T10:14:53;102215.94;;;7.04;100.00
57056;BME280;42945;51.718;5.324;2023-02-02T10:25:45;102219.41;;;7.06;100.00
57056;BME280;42945;51.718;5.324;2023-02-02T10:28:18;102197.69;;;7.35;100.00
57056;BME280;42945;51.718;5.324;2023-02-02T10:30:46;102261.25;;;7.24;100.00
57056;BME280;42945;51.718;5.324;2023-02-02T10:33:32;102270.63;;;7.38;100.00
57056;BME280;42945;51.718;5.324;2023-02-02T10:36:14;102274.13;;;7.38;100.00
57056;BME280;42945;51.718;5.324;2023-02-02T10:44:55;102214.53;;;7.28;100.00
57056;BME280;42945;51.718;5.324;2023-02-02T10:47:27;102139.38;;;6.65;100.00
57056;BME280;42945;51.718;5.324;2023-02-02T10:50:01;102229.53;;;7.27;100.00
57056;BME280;42945;51.718;5.324;2023-02-02T10:52:31;102228.03;;;7.14;100.00
57056;BME280;42945;51.718;5.324;2023-02-02T11:03:13;102189.34;;;7.13;100.00
57056;BME280;42945;51.718;5.324;2023-02-02T11:05:39;102207.88;;;7.12;100.00
57056;BME280;42945;51.718;5.324;2023-02-02T11:08:27;102104.56;;;6.49;100.00
57056;BME280;42945;51.718;5.324;2023-02-02T11:10:54;102292.03;;;7.24;100.00
57056;BME280;42945;51.718;5.324;2023-02-02T11:13:27;102268.44;;;7.16;100.00
57056;BME280;42945;51.718;5.324;2023-02-02T11:18:41;102278.03;;;7.20;100.00
57056;BME280;42945;51.718;5.324;2023-02-02T11:26:38;102148.88;;;6.74;100.00
57056;BME280;42945;51.718;5.324;2023-02-02T11:29:12;102534.31;;;8.84;100.00
57056;BME280;42945;51.718;5.324;2023-02-02T11:31:38;102200.53;;;7.24;100.00
57056;BME280;42945;51.718;5.324;2023-02-02T11:34:28;102249.47;;;7.41;100.00
57056;BME280;42945;51.718;5.324;2023-02-02T11:37:13;102208.75;;;7.51;100.00
57056;BME280;42945;51.718;5.324;2023-02-02T11:39:41;102276.84;;;7.35;100.00
57056;BME280;42945;51.718;5.324;2023-02-02T11:42:13;102259.44;;;7.26;100.00
57056;BME280;42945;51.718;5.324;2023-02-02T11:44:43;102245.22;;;7.34;100.00
57056;BME280;42945;51.718;5.324;2023-02-02T11:47:21;102259.38;;;7.29;100.00
57056;BME280;42945;51.718;5.324;2023-02-02T11:49:49;102221.63;;;7.26;100.00
57056;BME280;42945;51.718;5.324;2023-02-02T11:52:21;102354.97;;;7.86;100.00
57056;BME280;42945;51.718;5.324;2023-02-02T11:54:53;102226.88;;;7.27;100.00
57056;BME280;42945;51.718;5.324;2023-02-02T11:57:22;102246.16;;;7.31;100.00
57056;BME280;42945;51.718;5.324;2023-02-02T11:59:50;102210.63;;;7.05;100.00
57056;BME280;42945;51.718;5.324;2023-02-02T12:04:47;102219.00;;;7.24;100.00
57056;BME280;42945;51.718;5.324;2023-02-02T12:07:26;102246.09;;;7.33;100.00
57056;BME280;42945;51.718;5.324;2023-02-02T12:09:56;102240.91;;;7.29;100.00
57056;BME280;42945;51.718;5.324;2023-02-02T12:12:56;102270.00;;;7.26;100.00
57056;BME280;42945;51.718;5.324;2023-02-02T12:15:57;102262.03;;;7.29;100.00
57056;BME280;42945;51.718;5.324;2023-02-02T12:21:34;102221.78;;;7.18;100.00
57056;BME280;42945;51.718;5.324;2023-02-02T12:37:56;102268.59;;;7.08;100.00
57056;BME280;42945;51.718;5.324;2023-02-02T12:46:08;102233.97;;;6.80;100.00
57056;BME280;42945;51.718;5.324;2023-02-02T12:51:56;102263.00;;;6.80;100.00
57056;BME280;42945;51.718;5.324;2023-02-02T13:08:33;102251.56;;;6.81;100.00
57056;BME280;42945;51.718;5.324;2023-02-02T13:11:02;102239.50;;;6.68;100.00
57056;BME280;42945;51.718;5.324;2023-02-02T13:13:32;102222.84;;;6.66;100.00
57056;BME280;42945;51.718;5.324;2023-02-02T13:16:06;102267.38;;;6.81;100.00
57056;BME280;42945;51.718;5.324;2023-02-02T13:18:52;102235.91;;;6.72;100.00
57056;BME280;42945;51.718;5.324;2023-02-02T13:21:21;102195.69;;;6.61;100.00
57056;BME280;42945;51.718;5.324;2023-02-02T13:23:50;102245.72;;;6.65;100.00
57056;BME280;42945;51.718;5.324;2023-02-02T13:26:18;102231.63;;;6.65;100.00
57056;BME280;42945;51.718;5.324;2023-02-02T13:28:52;102293.28;;;6.59;100.00
57056;BME280;42945;51.718;5.324;2023-02-02T13:31:26;102227.56;;;6.48;100.00
57056;BME280;42945;51.718;5.324;2023-02-02T13:36:38;102265.50;;;6.40;100.00
57056;BME280;42945;51.718;5.324;2023-02-02T13:39:18;102251.25;;;6.50;100.00
57056;BME280;42945;51.718;5.324;2023-02-02T13:41:46;102259.91;;;6.57;100.00
57056;BME280;42945;51.718;5.324;2023-02-02T13:44:34;102220.72;;;6.38;100.00
57056;BME280;42945;51.718;5.324;2023-02-02T13:47:15;102239.31;;;6.29;100.00
57056;BME280;42945;51.718;5.324;2023-02-02T13:49:49;102204.00;;;6.39;100.00
57056;BME280;42945;51.718;5.324;2023-02-02T13:55:31;102274.63;;;6.68;100.00
57056;BME280;42945;51.718;5.324;2023-02-02T14:00:29;102136.34;;;5.91;100.00
57056;BME280;42945;51.718;5.324;2023-02-02T14:03:03;102284.91;;;6.82;100.00
57056;BME280;42945;51.718;5.324;2023-02-02T14:13:23;102259.31;;;6.42;100.00
57056;BME280;42945;51.718;5.324;2023-02-02T14:18:56;102233.16;;;6.30;100.00
57056;BME280;42945;51.718;5.324;2023-02-02T14:24:36;102189.38;;;5.68;100.00
57056;BME280;42945;51.718;5.324;2023-02-02T14:26:53;102211.41;;;5.61;100.00
57056;BME280;42945;51.718;5.324;2023-02-02T14:34:49;102297.38;;;6.24;100.00
57056;BME280;42945;51.718;5.324;2023-02-02T14:45:40;102270.59;;;5.93;100.00
57056;BME280;42945;51.718;5.324;2023-02-02T14:55:28;102196.03;;;5.33;100.00
57056;BME280;42945;51.718;5.324;2023-02-02T14:57:59;102349.22;;;6.22;100.00
57056;BME280;42945;51.718;5.324;2023-02-02T15:00:29;102281.94;;;6.01;100.00
57056;BME280;42945;51.718;5.324;2023-02-02T15:06:05;102220.66;;;5.29;100.00
57056;BME280;42945;51.718;5.324;2023-02-02T15:08:38;102554.44;;;5.63;100.00
57056;BME280;42945;51.718;5.324;2023-02-02T15:11:06;102189.00;;;5.36;100.00
57056;BME280;42945;51.718;5.324;2023-02-02T15:13:55;102270.56;;;5.99;100.00
57056;BME280;42945;51.718;5.324;2023-02-02T15:16:28;102323.16;;;6.02;100.00
57056;BME280;42945;51.718;5.324;2023-02-02T15:19:04;102322.22;;;6.08;100.00
57056;BME280;42945;51.718;5.324;2023-02-02T15:21:32;102295.19;;;5.92;100.00
57056;BME280;42945;51.718;5.324;2023-02-02T15:24:00;102317.13;;;5.96;100.00
57056;BME280;42945;51.718;5.324;2023-02-02T15:26:33;102318.75;;;6.03;100.00